Vedia, Argentina
Current Conditions -  °F | °C
As of 9:00 PM on Sunday 21 Dec 2014 (Local Time) from SAAR Reporting Station
Overcast Overcast  
Wind Chill: 66°   Ceiling: 10000
Heat Index: 66°   Visibility: 6mi
Dew Point: 45°   Wind: 9mph
Humidity: 46%   Direction: 200°SSW
Pressure: 29.88"   Gusts: NA
Location:  34.5°S, 61.53°W
Report Text: SAAR 220000Z 20008KT 9999 FEW030 BKN100OVC200 19/07 Q1012
Loading
Personal Weather Stations






























Interactive Weather Map New forecast layout! Learn more

10-Day Weather Forecast

Advertisements
Track Severe Weather on mobile